sensor_id;sensor_type;location;lat;lon;timestamp;P1;durP1;ratioP1;P2;durP2;ratioP2
73550;SDS011;61816;53.582;10.096;2024-02-15T00:00:03;81.35;;;31.58;;
73550;SDS011;61816;53.582;10.096;2024-02-15T00:02:33;83.25;;;32.42;;
73550;SDS011;61816;53.582;10.096;2024-02-15T00:04:58;80.45;;;34.30;;
73550;SDS011;61816;53.582;10.096;2024-02-15T00:07:24;73.70;;;31.17;;
73550;SDS011;61816;53.582;10.096;2024-02-15T00:09:49;84.43;;;33.15;;
73550;SDS011;61816;53.582;10.096;2024-02-15T00:12:15;89.15;;;32.88;;
73550;SDS011;61816;53.582;10.096;2024-02-15T00:14:40;81.25;;;32.85;;
73550;SDS011;61816;53.582;10.096;2024-02-15T00:17:05;109.63;;;36.65;;
73550;SDS011;61816;53.582;10.096;2024-02-15T00:19:31;83.38;;;32.92;;
73550;SDS011;61816;53.582;10.096;2024-02-15T00:21:56;85.22;;;33.03;;
73550;SDS011;61816;53.582;10.096;2024-02-15T00:24:22;98.50;;;35.45;;
73550;SDS011;61816;53.582;10.096;2024-02-15T00:26:49;72.25;;;32.90;;
73550;SDS011;61816;53.582;10.096;2024-02-15T00:29:14;85.47;;;37.33;;
73550;SDS011;61816;53.582;10.096;2024-02-15T00:31:40;90.20;;;36.30;;
73550;SDS011;61816;53.582;10.096;2024-02-15T00:34:05;95.82;;;38.42;;
73550;SDS011;61816;53.582;10.096;2024-02-15T00:36:31;99.50;;;38.38;;
73550;SDS011;61816;53.582;10.096;2024-02-15T00:38:58;99.22;;;40.28;;
73550;SDS011;61816;53.582;10.096;2024-02-15T00:41:24;80.90;;;35.80;;
73550;SDS011;61816;53.582;10.096;2024-02-15T00:43:49;87.30;;;37.45;;
73550;SDS011;61816;53.582;10.096;2024-02-15T00:46:18;75.95;;;37.63;;
73550;SDS011;61816;53.582;10.096;2024-02-15T00:48:43;88.90;;;39.90;;
73550;SDS011;61816;53.582;10.096;2024-02-15T00:51:08;89.40;;;40.40;;
73550;SDS011;61816;53.582;10.096;2024-02-15T00:53:34;79.68;;;39.60;;
73550;SDS011;61816;53.582;10.096;2024-02-15T00:55:59;91.80;;;41.25;;
73550;SDS011;61816;53.582;10.096;2024-02-15T00:58:24;86.97;;;40.60;;
73550;SDS011;61816;53.582;10.096;2024-02-15T01:00:52;81.75;;;40.40;;
73550;SDS011;61816;53.582;10.096;2024-02-15T01:03:18;89.20;;;43.88;;
73550;SDS011;61816;53.582;10.096;2024-02-15T01:05:44;88.88;;;43.80;;
73550;SDS011;61816;53.582;10.096;2024-02-15T01:08:10;73.93;;;39.00;;
73550;SDS011;61816;53.582;10.096;2024-02-15T01:10:36;74.70;;;41.47;;
73550;SDS011;61816;53.582;10.096;2024-02-15T01:13:02;71.43;;;39.15;;
73550;SDS011;61816;53.582;10.096;2024-02-15T01:15:27;69.82;;;38.60;;
73550;SDS011;61816;53.582;10.096;2024-02-15T01:17:52;69.13;;;37.95;;
73550;SDS011;61816;53.582;10.096;2024-02-15T01:20:18;75.10;;;41.30;;
73550;SDS011;61816;53.582;10.096;2024-02-15T01:22:43;80.72;;;39.67;;
73550;SDS011;61816;53.582;10.096;2024-02-15T01:25:09;92.88;;;43.40;;
73550;SDS011;61816;53.582;10.096;2024-02-15T01:27:36;88.03;;;45.03;;
73550;SDS011;61816;53.582;10.096;2024-02-15T01:30:01;85.55;;;44.05;;
73550;SDS011;61816;53.582;10.096;2024-02-15T01:32:27;76.45;;;39.08;;
73550;SDS011;61816;53.582;10.096;2024-02-15T01:34:52;75.20;;;39.03;;
73550;SDS011;61816;53.582;10.096;2024-02-15T01:37:20;84.65;;;40.78;;
73550;SDS011;61816;53.582;10.096;2024-02-15T01:39:46;80.85;;;40.47;;
73550;SDS011;61816;53.582;10.096;2024-02-15T01:42:11;95.30;;;44.30;;
73550;SDS011;61816;53.582;10.096;2024-02-15T01:44:39;119.78;;;49.08;;
73550;SDS011;61816;53.582;10.096;2024-02-15T01:47:09;94.80;;;42.60;;
73550;SDS011;61816;53.582;10.096;2024-02-15T01:49:35;96.35;;;40.58;;
73550;SDS011;61816;53.582;10.096;2024-02-15T01:52:01;78.15;;;39.88;;
73550;SDS011;61816;53.582;10.096;2024-02-15T01:54:30;94.15;;;42.67;;
73550;SDS011;61816;53.582;10.096;2024-02-15T01:56:56;93.57;;;40.35;;
73550;SDS011;61816;53.582;10.096;2024-02-15T01:59:22;71.75;;;36.58;;
73550;SDS011;61816;53.582;10.096;2024-02-15T02:01:48;72.53;;;37.05;;
73550;SDS011;61816;53.582;10.096;2024-02-15T02:04:15;78.80;;;41.05;;
73550;SDS011;61816;53.582;10.096;2024-02-15T02:06:40;85.18;;;41.33;;
73550;SDS011;61816;53.582;10.096;2024-02-15T02:09:09;81.40;;;41.90;;
73550;SDS011;61816;53.582;10.096;2024-02-15T02:11:37;78.68;;;40.60;;
73550;SDS011;61816;53.582;10.096;2024-02-15T02:14:03;77.85;;;40.45;;
73550;SDS011;61816;53.582;10.096;2024-02-15T02:16:29;96.55;;;45.17;;
73550;SDS011;61816;53.582;10.096;2024-02-15T02:18:57;78.30;;;38.70;;
73550;SDS011;61816;53.582;10.096;2024-02-15T02:21:26;82.13;;;40.60;;
73550;SDS011;61816;53.582;10.096;2024-02-15T02:23:55;78.72;;;41.10;;
73550;SDS011;61816;53.582;10.096;2024-02-15T02:26:21;79.72;;;41.08;;
73550;SDS011;61816;53.582;10.096;2024-02-15T02:28:47;105.70;;;46.53;;
73550;SDS011;61816;53.582;10.096;2024-02-15T02:31:13;84.18;;;43.25;;
73550;SDS011;61816;53.582;10.096;2024-02-15T02:33:46;92.78;;;41.25;;
73550;SDS011;61816;53.582;10.096;2024-02-15T02:36:17;83.07;;;41.25;;
73550;SDS011;61816;53.582;10.096;2024-02-15T02:38:43;87.13;;;43.38;;
73550;SDS011;61816;53.582;10.096;2024-02-15T02:41:10;97.80;;;44.63;;
73550;SDS011;61816;53.582;10.096;2024-02-15T02:43:36;76.70;;;41.35;;
73550;SDS011;61816;53.582;10.096;2024-02-15T02:46:02;92.30;;;42.70;;
73550;SDS011;61816;53.582;10.096;2024-02-15T02:48:30;105.95;;;46.20;;
73550;SDS011;61816;53.582;10.096;2024-02-15T02:50:56;88.28;;;42.58;;
73550;SDS011;61816;53.582;10.096;2024-02-15T02:53:23;89.50;;;40.17;;
73550;SDS011;61816;53.582;10.096;2024-02-15T02:55:49;84.50;;;40.83;;
73550;SDS011;61816;53.582;10.096;2024-02-15T02:58:14;88.57;;;41.08;;
73550;SDS011;61816;53.582;10.096;2024-02-15T03:00:40;96.68;;;41.63;;
73550;SDS011;61816;53.582;10.096;2024-02-15T03:03:05;110.28;;;41.70;;
73550;SDS011;61816;53.582;10.096;2024-02-15T03:05:30;100.57;;;40.55;;
73550;SDS011;61816;53.582;10.096;2024-02-15T03:07:56;111.88;;;44.63;;
73550;SDS011;61816;53.582;10.096;2024-02-15T03:10:22;110.07;;;43.88;;
73550;SDS011;61816;53.582;10.096;2024-02-15T03:12:49;93.78;;;40.90;;
73550;SDS011;61816;53.582;10.096;2024-02-15T03:15:14;98.05;;;41.60;;
73550;SDS011;61816;53.582;10.096;2024-02-15T03:17:41;93.25;;;40.97;;
73550;SDS011;61816;53.582;10.096;2024-02-15T03:20:08;82.78;;;39.72;;
73550;SDS011;61816;53.582;10.096;2024-02-15T03:22:42;85.63;;;36.58;;
73550;SDS011;61816;53.582;10.096;2024-02-15T03:25:07;83.60;;;38.75;;
73550;SDS011;61816;53.582;10.096;2024-02-15T03:27:33;73.10;;;36.15;;
73550;SDS011;61816;53.582;10.096;2024-02-15T03:30:00;78.55;;;36.38;;
73550;SDS011;61816;53.582;10.096;2024-02-15T03:32:26;65.95;;;32.47;;
73550;SDS011;61816;53.582;10.096;2024-02-15T03:34:52;71.03;;;31.27;;
73550;SDS011;61816;53.582;10.096;2024-02-15T03:37:19;70.70;;;32.13;;
73550;SDS011;61816;53.582;10.096;2024-02-15T03:39:45;81.75;;;34.88;;
73550;SDS011;61816;53.582;10.096;2024-02-15T03:42:11;72.82;;;34.05;;
73550;SDS011;61816;53.582;10.096;2024-02-15T03:44:36;72.45;;;32.47;;
73550;SDS011;61816;53.582;10.096;2024-02-15T03:47:03;74.45;;;31.33;;
73550;SDS011;61816;53.582;10.096;2024-02-15T03:49:30;75.82;;;34.97;;
73550;SDS011;61816;53.582;10.096;2024-02-15T03:51:57;70.35;;;31.83;;
73550;SDS011;61816;53.582;10.096;2024-02-15T03:54:24;76.65;;;33.17;;
73550;SDS011;61816;53.582;10.096;2024-02-15T03:56:50;79.00;;;32.97;;
73550;SDS011;61816;53.582;10.096;2024-02-15T03:59:19;96.50;;;38.92;;
73550;SDS011;61816;53.582;10.096;2024-02-15T04:01:55;74.03;;;35.50;;
73550;SDS011;61816;53.582;10.096;2024-02-15T04:04:22;87.22;;;35.00;;
73550;SDS011;61816;53.582;10.096;2024-02-15T04:06:48;75.47;;;35.33;;
73550;SDS011;61816;53.582;10.096;2024-02-15T04:09:17;79.00;;;36.28;;
73550;SDS011;61816;53.582;10.096;2024-02-15T04:11:43;81.40;;;36.03;;
73550;SDS011;61816;53.582;10.096;2024-02-15T04:14:22;89.97;;;40.72;;
73550;SDS011;61816;53.582;10.096;2024-02-15T04:16:48;88.22;;;39.13;;
73550;SDS011;61816;53.582;10.096;2024-02-15T04:19:13;104.72;;;40.78;;
73550;SDS011;61816;53.582;10.096;2024-02-15T04:21:39;90.30;;;38.65;;
73550;SDS011;61816;53.582;10.096;2024-02-15T04:24:05;92.43;;;41.08;;
73550;SDS011;61816;53.582;10.096;2024-02-15T04:26:31;98.32;;;41.70;;
73550;SDS011;61816;53.582;10.096;2024-02-15T04:28:57;86.40;;;39.90;;
73550;SDS011;61816;53.582;10.096;2024-02-15T04:31:23;93.85;;;41.05;;
73550;SDS011;61816;53.582;10.096;2024-02-15T04:33:52;98.57;;;42.35;;
73550;SDS011;61816;53.582;10.096;2024-02-15T04:36:18;93.97;;;40.50;;
73550;SDS011;61816;53.582;10.096;2024-02-15T04:38:48;96.25;;;40.78;;
73550;SDS011;61816;53.582;10.096;2024-02-15T04:41:15;96.30;;;40.65;;
73550;SDS011;61816;53.582;10.096;2024-02-15T04:43:45;99.50;;;40.25;;
73550;SDS011;61816;53.582;10.096;2024-02-15T04:46:11;90.47;;;39.75;;
73550;SDS011;61816;53.582;10.096;2024-02-15T04:48:39;92.00;;;39.97;;
73550;SDS011;61816;53.582;10.096;2024-02-15T04:51:07;84.50;;;40.22;;
73550;SDS011;61816;53.582;10.096;2024-02-15T04:53:32;97.00;;;41.40;;
73550;SDS011;61816;53.582;10.096;2024-02-15T04:55:58;86.53;;;42.58;;
73550;SDS011;61816;53.582;10.096;2024-02-15T04:58:26;91.55;;;40.13;;
73550;SDS011;61816;53.582;10.096;2024-02-15T05:00:54;94.57;;;43.95;;
73550;SDS011;61816;53.582;10.096;2024-02-15T05:03:24;92.13;;;41.05;;
73550;SDS011;61816;53.582;10.096;2024-02-15T05:05:49;96.75;;;41.33;;
73550;SDS011;61816;53.582;10.096;2024-02-15T05:08:15;106.32;;;44.92;;
73550;SDS011;61816;53.582;10.096;2024-02-15T05:10:40;107.60;;;46.30;;
73550;SDS011;61816;53.582;10.096;2024-02-15T05:13:06;104.60;;;45.85;;
73550;SDS011;61816;53.582;10.096;2024-02-15T05:15:31;95.57;;;43.67;;
73550;SDS011;61816;53.582;10.096;2024-02-15T05:17:58;103.50;;;45.08;;
73550;SDS011;61816;53.582;10.096;2024-02-15T05:20:23;97.53;;;44.50;;
73550;SDS011;61816;53.582;10.096;2024-02-15T05:22:52;97.85;;;40.65;;
73550;SDS011;61816;53.582;10.096;2024-02-15T05:25:20;92.13;;;42.60;;
73550;SDS011;61816;53.582;10.096;2024-02-15T05:27:51;103.95;;;44.35;;
73550;SDS011;61816;53.582;10.096;2024-02-15T05:30:18;100.88;;;42.45;;
73550;SDS011;61816;53.582;10.096;2024-02-15T05:32:44;98.43;;;44.20;;
73550;SDS011;61816;53.582;10.096;2024-02-15T05:35:10;81.45;;;39.55;;
73550;SDS011;61816;53.582;10.096;2024-02-15T05:37:39;90.88;;;41.67;;
73550;SDS011;61816;53.582;10.096;2024-02-15T05:40:05;103.10;;;42.50;;
73550;SDS011;61816;53.582;10.096;2024-02-15T05:42:32;91.10;;;40.90;;
73550;SDS011;61816;53.582;10.096;2024-02-15T05:45:14;99.72;;;41.80;;
73550;SDS011;61816;53.582;10.096;2024-02-15T05:47:50;111.97;;;42.47;;
73550;SDS011;61816;53.582;10.096;2024-02-15T05:50:15;112.30;;;43.22;;
73550;SDS011;61816;53.582;10.096;2024-02-15T05:52:45;102.45;;;40.65;;
73550;SDS011;61816;53.582;10.096;2024-02-15T05:55:11;121.13;;;47.55;;
73550;SDS011;61816;53.582;10.096;2024-02-15T05:57:41;102.45;;;43.25;;
73550;SDS011;61816;53.582;10.096;2024-02-15T06:00:10;116.60;;;43.33;;
73550;SDS011;61816;53.582;10.096;2024-02-15T06:02:36;112.43;;;46.47;;
73550;SDS011;61816;53.582;10.096;2024-02-15T06:05:03;108.30;;;42.75;;
73550;SDS011;61816;53.582;10.096;2024-02-15T06:07:30;122.75;;;47.35;;
73550;SDS011;61816;53.582;10.096;2024-02-15T06:09:59;124.35;;;45.92;;
73550;SDS011;61816;53.582;10.096;2024-02-15T06:12:28;124.35;;;46.78;;
73550;SDS011;61816;53.582;10.096;2024-02-15T06:14:54;112.93;;;43.90;;
73550;SDS011;61816;53.582;10.096;2024-02-15T06:17:20;116.32;;;47.53;;
73550;SDS011;61816;53.582;10.096;2024-02-15T06:19:45;128.30;;;47.47;;
73550;SDS011;61816;53.582;10.096;2024-02-15T06:22:11;159.05;;;51.05;;
73550;SDS011;61816;53.582;10.096;2024-02-15T06:24:37;120.55;;;46.53;;
73550;SDS011;61816;53.582;10.096;2024-02-15T06:27:03;117.65;;;45.90;;
73550;SDS011;61816;53.582;10.096;2024-02-15T06:29:29;127.82;;;45.95;;
73550;SDS011;61816;53.582;10.096;2024-02-15T06:32:13;124.78;;;46.63;;
73550;SDS011;61816;53.582;10.096;2024-02-15T06:34:57;112.50;;;43.28;;
73550;SDS011;61816;53.582;10.096;2024-02-15T06:37:41;124.47;;;46.80;;
73550;SDS011;61816;53.582;10.096;2024-02-15T06:40:25;124.47;;;45.20;;
73550;SDS011;61816;53.582;10.096;2024-02-15T06:42:50;110.03;;;43.80;;
73550;SDS011;61816;53.582;10.096;2024-02-15T06:45:16;117.20;;;44.22;;
73550;SDS011;61816;53.582;10.096;2024-02-15T06:47:44;138.85;;;45.78;;
73550;SDS011;61816;53.582;10.096;2024-02-15T06:50:13;131.77;;;46.58;;
73550;SDS011;61816;53.582;10.096;2024-02-15T06:52:43;131.13;;;48.90;;
73550;SDS011;61816;53.582;10.096;2024-02-15T06:55:09;131.23;;;45.35;;
73550;SDS011;61816;53.582;10.096;2024-02-15T06:57:37;127.95;;;47.03;;
73550;SDS011;61816;53.582;10.096;2024-02-15T07:00:05;121.28;;;43.15;;
73550;SDS011;61816;53.582;10.096;2024-02-15T07:02:34;117.60;;;41.10;;
73550;SDS011;61816;53.582;10.096;2024-02-15T07:05:00;135.75;;;46.30;;
73550;SDS011;61816;53.582;10.096;2024-02-15T07:07:28;119.05;;;42.53;;
73550;SDS011;61816;53.582;10.096;2024-02-15T07:09:53;128.73;;;45.53;;
73550;SDS011;61816;53.582;10.096;2024-02-15T07:12:19;123.25;;;44.05;;
73550;SDS011;61816;53.582;10.096;2024-02-15T07:14:46;136.18;;;46.25;;
73550;SDS011;61816;53.582;10.096;2024-02-15T07:17:12;119.47;;;41.45;;
73550;SDS011;61816;53.582;10.096;2024-02-15T07:19:37;138.13;;;48.78;;
73550;SDS011;61816;53.582;10.096;2024-02-15T07:22:03;135.45;;;43.35;;
73550;SDS011;61816;53.582;10.096;2024-02-15T07:24:29;144.05;;;47.60;;
73550;SDS011;61816;53.582;10.096;2024-02-15T07:26:54;124.30;;;43.25;;
73550;SDS011;61816;53.582;10.096;2024-02-15T07:29:23;113.07;;;43.90;;
73550;SDS011;61816;53.582;10.096;2024-02-15T07:31:49;110.80;;;41.28;;
73550;SDS011;61816;53.582;10.096;2024-02-15T07:34:14;118.20;;;43.78;;
73550;SDS011;61816;53.582;10.096;2024-02-15T07:36:41;118.63;;;39.63;;
73550;SDS011;61816;53.582;10.096;2024-02-15T07:39:08;118.47;;;43.45;;
73550;SDS011;61816;53.582;10.096;2024-02-15T07:41:37;112.45;;;42.97;;
73550;SDS011;61816;53.582;10.096;2024-02-15T07:44:03;114.18;;;42.67;;
73550;SDS011;61816;53.582;10.096;2024-02-15T07:46:29;130.55;;;46.80;;
73550;SDS011;61816;53.582;10.096;2024-02-15T07:48:55;125.68;;;43.25;;
73550;SDS011;61816;53.582;10.096;2024-02-15T07:51:21;119.35;;;43.45;;
73550;SDS011;61816;53.582;10.096;2024-02-15T07:53:48;136.90;;;46.95;;
73550;SDS011;61816;53.582;10.096;2024-02-15T07:56:15;98.05;;;39.17;;
73550;SDS011;61816;53.582;10.096;2024-02-15T07:58:44;109.07;;;40.53;;
73550;SDS011;61816;53.582;10.096;2024-02-15T08:01:14;106.38;;;41.45;;
73550;SDS011;61816;53.582;10.096;2024-02-15T08:03:40;105.35;;;41.05;;
73550;SDS011;61816;53.582;10.096;2024-02-15T08:06:10;106.55;;;41.78;;
73550;SDS011;61816;53.582;10.096;2024-02-15T08:08:38;118.78;;;43.17;;
73550;SDS011;61816;53.582;10.096;2024-02-15T08:11:06;105.25;;;39.65;;
73550;SDS011;61816;53.582;10.096;2024-02-15T08:13:40;91.75;;;38.28;;
73550;SDS011;61816;53.582;10.096;2024-02-15T08:16:08;80.00;;;35.80;;
73550;SDS011;61816;53.582;10.096;2024-02-15T08:18:33;94.10;;;37.67;;
73550;SDS011;61816;53.582;10.096;2024-02-15T08:21:00;95.68;;;39.92;;
73550;SDS011;61816;53.582;10.096;2024-02-15T08:23:26;94.55;;;36.90;;
73550;SDS011;61816;53.582;10.096;2024-02-15T08:25:52;84.72;;;35.97;;
73550;SDS011;61816;53.582;10.096;2024-02-15T08:28:18;91.40;;;36.63;;
73550;SDS011;61816;53.582;10.096;2024-02-15T08:30:45;76.78;;;31.42;;
73550;SDS011;61816;53.582;10.096;2024-02-15T08:33:12;83.00;;;32.13;;
73550;SDS011;61816;53.582;10.096;2024-02-15T08:35:37;69.65;;;32.83;;
73550;SDS011;61816;53.582;10.096;2024-02-15T08:38:05;83.68;;;35.10;;
73550;SDS011;61816;53.582;10.096;2024-02-15T08:40:31;73.47;;;32.33;;
73550;SDS011;61816;53.582;10.096;2024-02-15T08:42:57;83.55;;;35.55;;
73550;SDS011;61816;53.582;10.096;2024-02-15T08:45:22;76.43;;;31.67;;
73550;SDS011;61816;53.582;10.096;2024-02-15T08:47:48;85.05;;;35.13;;
73550;SDS011;61816;53.582;10.096;2024-02-15T08:50:15;71.88;;;33.15;;
73550;SDS011;61816;53.582;10.096;2024-02-15T08:52:41;71.68;;;32.67;;
73550;SDS011;61816;53.582;10.096;2024-02-15T08:55:08;74.68;;;33.05;;
73550;SDS011;61816;53.582;10.096;2024-02-15T08:57:34;78.85;;;32.80;;
73550;SDS011;61816;53.582;10.096;2024-02-15T09:00:12;78.25;;;33.20;;
73550;SDS011;61816;53.582;10.096;2024-02-15T09:02:45;64.15;;;29.55;;
73550;SDS011;61816;53.582;10.096;2024-02-15T09:05:11;79.10;;;34.40;;
73550;SDS011;61816;53.582;10.096;2024-02-15T09:07:42;72.33;;;28.87;;
73550;SDS011;61816;53.582;10.096;2024-02-15T09:10:11;64.22;;;26.27;;
73550;SDS011;61816;53.582;10.096;2024-02-15T09:12:37;73.25;;;30.98;;
73550;SDS011;61816;53.582;10.096;2024-02-15T09:15:08;66.65;;;29.10;;
73550;SDS011;61816;53.582;10.096;2024-02-15T09:17:34;66.00;;;27.65;;
73550;SDS011;61816;53.582;10.096;2024-02-15T09:20:13;57.90;;;26.08;;
73550;SDS011;61816;53.582;10.096;2024-02-15T09:22:43;53.40;;;23.30;;
73550;SDS011;61816;53.582;10.096;2024-02-15T09:25:13;53.05;;;24.42;;
73550;SDS011;61816;53.582;10.096;2024-02-15T09:27:39;51.05;;;23.75;;
73550;SDS011;61816;53.582;10.096;2024-02-15T09:30:05;51.33;;;23.60;;
73550;SDS011;61816;53.582;10.096;2024-02-15T09:32:37;46.88;;;22.23;;
73550;SDS011;61816;53.582;10.096;2024-02-15T09:35:06;42.13;;;20.35;;
73550;SDS011;61816;53.582;10.096;2024-02-15T09:37:33;43.65;;;22.77;;
73550;SDS011;61816;53.582;10.096;2024-02-15T09:40:04;50.67;;;23.55;;
73550;SDS011;61816;53.582;10.096;2024-02-15T09:42:35;40.33;;;20.35;;
73550;SDS011;61816;53.582;10.096;2024-02-15T09:45:01;40.35;;;20.83;;
73550;SDS011;61816;53.582;10.096;2024-02-15T09:47:30;39.40;;;21.48;;
73550;SDS011;61816;53.582;10.096;2024-02-15T09:50:00;50.05;;;23.83;;
73550;SDS011;61816;53.582;10.096;2024-02-15T09:52:25;49.35;;;23.40;;
73550;SDS011;61816;53.582;10.096;2024-02-15T09:54:52;64.22;;;25.27;;
73550;SDS011;61816;53.582;10.096;2024-02-15T09:57:19;56.90;;;25.42;;
73550;SDS011;61816;53.582;10.096;2024-02-15T09:59:45;60.85;;;25.13;;
73550;SDS011;61816;53.582;10.096;2024-02-15T10:02:11;68.30;;;25.90;;
73550;SDS011;61816;53.582;10.096;2024-02-15T10:04:39;66.45;;;26.20;;
73550;SDS011;61816;53.582;10.096;2024-02-15T10:07:05;62.40;;;25.58;;
73550;SDS011;61816;53.582;10.096;2024-02-15T10:09:33;70.22;;;27.33;;
73550;SDS011;61816;53.582;10.096;2024-02-15T10:12:01;56.83;;;24.83;;
73550;SDS011;61816;53.582;10.096;2024-02-15T10:14:28;76.38;;;29.33;;
73550;SDS011;61816;53.582;10.096;2024-02-15T10:16:55;63.88;;;27.13;;
73550;SDS011;61816;53.582;10.096;2024-02-15T10:19:21;62.42;;;27.08;;
73550;SDS011;61816;53.582;10.096;2024-02-15T10:21:51;55.33;;;25.55;;
73550;SDS011;61816;53.582;10.096;2024-02-15T10:24:20;63.40;;;29.02;;
73550;SDS011;61816;53.582;10.096;2024-02-15T10:26:48;68.35;;;29.50;;
73550;SDS011;61816;53.582;10.096;2024-02-15T10:29:13;66.82;;;30.13;;
73550;SDS011;61816;53.582;10.096;2024-02-15T10:31:52;69.32;;;34.10;;
73550;SDS011;61816;53.582;10.096;2024-02-15T10:34:19;57.67;;;28.90;;
73550;SDS011;61816;53.582;10.096;2024-02-15T10:36:45;59.72;;;30.60;;
73550;SDS011;61816;53.582;10.096;2024-02-15T10:39:11;60.03;;;29.70;;
73550;SDS011;61816;53.582;10.096;2024-02-15T10:41:52;81.03;;;32.83;;
73550;SDS011;61816;53.582;10.096;2024-02-15T10:44:20;69.18;;;32.50;;
73550;SDS011;61816;53.582;10.096;2024-02-15T10:46:48;71.55;;;34.17;;
73550;SDS011;61816;53.582;10.096;2024-02-15T10:49:18;63.47;;;33.22;;
73550;SDS011;61816;53.582;10.096;2024-02-15T10:51:44;77.10;;;36.72;;
73550;SDS011;61816;53.582;10.096;2024-02-15T10:54:15;71.63;;;35.88;;
73550;SDS011;61816;53.582;10.096;2024-02-15T10:56:44;86.70;;;36.65;;
73550;SDS011;61816;53.582;10.096;2024-02-15T10:59:19;72.50;;;37.53;;
73550;SDS011;61816;53.582;10.096;2024-02-15T11:01:49;84.00;;;41.15;;
73550;SDS011;61816;53.582;10.096;2024-02-15T11:04:20;79.22;;;36.45;;
73550;SDS011;61816;53.582;10.096;2024-02-15T11:06:47;79.55;;;38.42;;
73550;SDS011;61816;53.582;10.096;2024-02-15T11:09:15;83.07;;;35.60;;
73550;SDS011;61816;53.582;10.096;2024-02-15T11:11:41;81.20;;;40.28;;
73550;SDS011;61816;53.582;10.096;2024-02-15T11:16:50;88.50;;;41.35;;
73550;SDS011;61816;53.582;10.096;2024-02-15T11:22:00;95.55;;;46.85;;
73550;SDS011;61816;53.582;10.096;2024-02-15T11:24:29;78.55;;;36.50;;
73550;SDS011;61816;53.582;10.096;2024-02-15T11:27:01;96.30;;;39.83;;
73550;SDS011;61816;53.582;10.096;2024-02-15T11:32:33;108.85;;;44.83;;
73550;SDS011;61816;53.582;10.096;2024-02-15T11:35:15;88.30;;;40.40;;
73550;SDS011;61816;53.582;10.096;2024-02-15T11:42:49;98.00;;;42.53;;
73550;SDS011;61816;53.582;10.096;2024-02-15T11:45:18;112.93;;;48.88;;
73550;SDS011;61816;53.582;10.096;2024-02-15T11:47:46;102.78;;;44.08;;
73550;SDS011;61816;53.582;10.096;2024-02-15T11:50:15;107.18;;;45.35;;
73550;SDS011;61816;53.582;10.096;2024-02-15T11:52:43;122.38;;;49.55;;
73550;SDS011;61816;53.582;10.096;2024-02-15T11:55:09;129.43;;;50.03;;
73550;SDS011;61816;53.582;10.096;2024-02-15T11:57:40;125.05;;;49.05;;
73550;SDS011;61816;53.582;10.096;2024-02-15T12:00:23;104.22;;;45.70;;
73550;SDS011;61816;53.582;10.096;2024-02-15T12:03:08;127.53;;;52.97;;
73550;SDS011;61816;53.582;10.096;2024-02-15T12:05:53;123.53;;;51.72;;
73550;SDS011;61816;53.582;10.096;2024-02-15T12:08:45;100.65;;;45.72;;
73550;SDS011;61816;53.582;10.096;2024-02-15T12:11:29;140.05;;;55.60;;
73550;SDS011;61816;53.582;10.096;2024-02-15T12:14:14;127.63;;;52.70;;
73550;SDS011;61816;53.582;10.096;2024-02-15T12:17:08;156.93;;;59.58;;
73550;SDS011;61816;53.582;10.096;2024-02-15T12:19:56;159.02;;;58.17;;
73550;SDS011;61816;53.582;10.096;2024-02-15T12:22:25;127.93;;;52.15;;
73550;SDS011;61816;53.582;10.096;2024-02-15T12:25:00;148.65;;;57.35;;
73550;SDS011;61816;53.582;10.096;2024-02-15T12:27:30;121.75;;;54.10;;
73550;SDS011;61816;53.582;10.096;2024-02-15T12:29:57;150.60;;;57.97;;
73550;SDS011;61816;53.582;10.096;2024-02-15T12:32:23;150.38;;;57.22;;
73550;SDS011;61816;53.582;10.096;2024-02-15T12:34:50;110.80;;;49.40;;
73550;SDS011;61816;53.582;10.096;2024-02-15T12:37:22;128.15;;;52.13;;
73550;SDS011;61816;53.582;10.096;2024-02-15T12:39:49;140.07;;;54.58;;
73550;SDS011;61816;53.582;10.096;2024-02-15T12:42:15;110.45;;;49.63;;
73550;SDS011;61816;53.582;10.096;2024-02-15T12:44:46;122.57;;;54.05;;
73550;SDS011;61816;53.582;10.096;2024-02-15T12:47:21;126.43;;;51.08;;
73550;SDS011;61816;53.582;10.096;2024-02-15T12:49:47;111.25;;;47.65;;
73550;SDS011;61816;53.582;10.096;2024-02-15T12:55:16;105.28;;;47.30;;
73550;SDS011;61816;53.582;10.096;2024-02-15T12:57:45;95.35;;;46.53;;
73550;SDS011;61816;53.582;10.096;2024-02-15T13:00:13;85.55;;;41.00;;
73550;SDS011;61816;53.582;10.096;2024-02-15T13:02:43;81.78;;;39.13;;
73550;SDS011;61816;53.582;10.096;2024-02-15T13:05:09;90.70;;;42.30;;
73550;SDS011;61816;53.582;10.096;2024-02-15T13:07:38;95.40;;;43.22;;
73550;SDS011;61816;53.582;10.096;2024-02-15T13:10:04;87.75;;;38.28;;
73550;SDS011;61816;53.582;10.096;2024-02-15T13:12:32;95.00;;;42.55;;
73550;SDS011;61816;53.582;10.096;2024-02-15T13:15:04;89.38;;;39.83;;
73550;SDS011;61816;53.582;10.096;2024-02-15T13:17:37;72.47;;;35.75;;
73550;SDS011;61816;53.582;10.096;2024-02-15T13:20:03;63.30;;;33.40;;
73550;SDS011;61816;53.582;10.096;2024-02-15T13:22:36;70.38;;;34.08;;
73550;SDS011;61816;53.582;10.096;2024-02-15T13:25:03;67.78;;;33.47;;
73550;SDS011;61816;53.582;10.096;2024-02-15T13:27:29;76.28;;;36.95;;
73550;SDS011;61816;53.582;10.096;2024-02-15T13:29:55;56.15;;;29.38;;
73550;SDS011;61816;53.582;10.096;2024-02-15T13:32:21;63.40;;;35.05;;
73550;SDS011;61816;53.582;10.096;2024-02-15T13:34:49;59.65;;;30.90;;
73550;SDS011;61816;53.582;10.096;2024-02-15T13:37:21;52.00;;;27.60;;
73550;SDS011;61816;53.582;10.096;2024-02-15T13:39:48;36.70;;;21.40;;
73550;SDS011;61816;53.582;10.096;2024-02-15T13:42:14;36.03;;;21.17;;
73550;SDS011;61816;53.582;10.096;2024-02-15T13:44:42;46.03;;;23.70;;
73550;SDS011;61816;53.582;10.096;2024-02-15T13:47:08;39.50;;;23.33;;
73550;SDS011;61816;53.582;10.096;2024-02-15T13:49:33;38.67;;;20.63;;
73550;SDS011;61816;53.582;10.096;2024-02-15T13:51:59;35.22;;;19.80;;
73550;SDS011;61816;53.582;10.096;2024-02-15T13:54:28;38.00;;;20.25;;
73550;SDS011;61816;53.582;10.096;2024-02-15T13:56:54;30.45;;;19.00;;
73550;SDS011;61816;53.582;10.096;2024-02-15T13:59:20;35.78;;;20.48;;
73550;SDS011;61816;53.582;10.096;2024-02-15T14:01:45;29.88;;;20.55;;
73550;SDS011;61816;53.582;10.096;2024-02-15T14:04:11;29.27;;;18.33;;
73550;SDS011;61816;53.582;10.096;2024-02-15T14:06:37;38.58;;;20.27;;
73550;SDS011;61816;53.582;10.096;2024-02-15T14:09:05;30.45;;;19.33;;
73550;SDS011;61816;53.582;10.096;2024-02-15T14:11:31;32.47;;;21.58;;
73550;SDS011;61816;53.582;10.096;2024-02-15T14:13:56;35.15;;;20.92;;
73550;SDS011;61816;53.582;10.096;2024-02-15T14:16:26;35.03;;;21.10;;
73550;SDS011;61816;53.582;10.096;2024-02-15T14:18:52;41.50;;;21.45;;
73550;SDS011;61816;53.582;10.096;2024-02-15T14:21:19;30.63;;;19.52;;
73550;SDS011;61816;53.582;10.096;2024-02-15T14:23:45;39.88;;;21.10;;
73550;SDS011;61816;53.582;10.096;2024-02-15T14:26:11;35.92;;;19.23;;